Main page
METAR-TAF:

METAR-TAF

Airports :

Kunovice Airport

Uherské Hradiště, Czech Republic

latitude: 49-01-46N, longitude: 017-26-23E, elevation: 177 m

Current weather observation

The report was made 13 hours and 30 minutes ago, at 06:00 UTC
Wind 3 kt from the North
Temperature 15°C
Humidity 77%
Pressure 1015 hPa
Visibility 10 km or more
Few clouds at a height of 1800 ft

METAR: LKKU 220600Z 36003KT 9999 FEW018 15/11 Q1015

Time: 21:30 (19:30 UTC)


TAF: missing

Weather observations and forecasts of more than 4000 airports (METAR and TAF reports).

The available stations are represented by yellow and red dots on the map.

Hover mouse over dot to see the name of the station.

Then click to see weather observations and forecasts.

To change the map : click on the green buttons with a black cross to zoom in, on the green button with a dash to zoom out, or on the green arrows for adjacent maps.


METAR-TAF: